Time;durP1;ratioP1;P1;durP2;ratioP2;P2;SDS_P1;SDS_P2;PMS_P1;PMS_P2;Temp;Humidity;BMP_temperature;BMP_pressure;BME280_temperature;BME280_humidity;BME280_pressure;Samples;Min_cycle;Max_cycle;Signal;HPM_P1;HPM_P2
2023/02/10 00:02:18;;;;;;;28.40;16.50;;;;;;;-1.84;62.31;102967.20;106975;1257;73522;-88
2023/02/10 00:04:47;;;;;;;31.20;17.50;;;;;;;-1.85;62.14;102962.38;106956;1261;61354;-91
2023/02/10 00:07:18;;;;;;;34.80;19.30;;;;;;;-1.84;62.19;102958.30;107158;1261;60348;-88
2023/02/10 00:09:50;;;;;;;28.10;16.90;;;;;;;-1.83;62.13;102955.73;107276;1257;74770;-91
2023/02/10 00:12:19;;;;;;;30.00;16.00;;;;;;;-1.83;61.98;102951.62;106990;1257;63884;-89
2023/02/10 00:14:48;;;;;;;31.50;16.90;;;;;;;-1.85;61.62;102938.54;107886;1258;73710;-87
2023/02/10 00:17:18;;;;;;;27.10;15.40;;;;;;;-1.89;61.81;102938.09;108053;1256;61124;-88
2023/02/10 00:19:48;;;;;;;29.60;16.00;;;;;;;-1.89;61.83;102932.44;108976;1257;60305;-89
2023/02/10 00:22:17;;;;;;;32.70;16.00;;;;;;;-1.86;61.87;102937.33;109479;1256;73113;-91
2023/02/10 00:24:46;;;;;;;27.20;15.60;;;;;;;-1.82;62.07;102937.44;109262;1256;63457;-92
2023/02/10 00:27:14;;;;;;;29.20;15.20;;;;;;;-1.78;61.69;102936.86;109051;1256;72638;-87
2023/02/10 00:29:49;;;;;;;25.40;14.50;;;;;;;-1.72;61.43;102937.70;108820;1256;59641;-89
2023/02/10 00:32:18;;;;;;;27.50;14.80;;;;;;;-1.69;61.38;102936.77;108806;1256;60031;-88
2023/02/10 00:34:47;;;;;;;31.30;17.00;;;;;;;-1.65;61.58;102932.95;109292;1256;72906;-91
2023/02/10 00:37:18;;;;;;;31.70;17.00;;;;;;;-1.61;61.78;102934.23;109402;1257;63990;-89
2023/02/10 00:39:49;;;;;;;27.60;15.80;;;;;;;-1.61;61.50;102934.23;109249;1257;72405;-89
2023/02/10 00:42:20;;;;;;;33.60;17.00;;;;;;;-1.63;61.21;102926.12;108796;1256;60643;-88
2023/02/10 00:44:55;;;;;;;28.40;16.60;;;;;;;-1.67;61.26;102920.00;108788;1257;60705;-89
2023/02/10 00:47:33;;;;;;;32.90;19.00;;;;;;;-1.69;61.32;102920.30;108073;1257;72679;-89
2023/02/10 00:50:02;;;;;;;31.10;17.80;;;;;;;-1.69;61.20;102918.95;107315;1256;64088;-90
2023/02/10 00:52:53;;;;;;;27.70;15.60;;;;;;;-1.70;61.16;102915.64;108033;1256;72649;-91
2023/02/10 00:55:23;;;;;;;26.50;15.30;;;;;;;-1.72;61.53;102915.94;107814;1257;60346;-91
2023/02/10 00:57:53;;;;;;;35.00;19.00;;;;;;;-1.73;61.96;102911.27;107484;1256;61148;-92
2023/02/10 01:00:23;;;;;;;35.50;18.40;;;;;;;-1.71;61.84;102913.73;107141;1257;72770;-91
2023/02/10 01:02:52;;;;;;;37.90;19.20;;;;;;;-1.67;61.91;102913.70;107702;1257;64161;-92
2023/02/10 01:05:23;;;;;;;35.60;19.10;;;;;;;-1.61;62.22;102915.20;107596;1257;71365;-91
2023/02/10 01:07:53;;;;;;;30.30;16.90;;;;;;;-1.56;62.02;102916.20;107795;1256;60333;-91
2023/02/10 01:10:27;;;;;;;23.70;13.20;;;;;;;-1.53;62.01;102917.65;107583;1257;61320;-91
2023/02/10 01:12:57;;;;;;;22.40;13.70;;;;;;;-1.51;61.68;102919.77;107762;1257;73898;-90
2023/02/10 01:15:32;;;;;;;28.10;14.60;;;;;;;-1.51;61.52;102914.98;107389;1260;63786;-90
2023/02/10 01:18:03;;;;;;;18.70;11.90;;;;;;;-1.51;61.41;102907.42;106667;1256;73670;-91
2023/02/10 01:20:32;;;;;;;20.70;12.60;;;;;;;-1.52;61.37;102907.06;106928;1257;60171;-91
2023/02/10 01:23:02;;;;;;;18.30;11.30;;;;;;;-1.53;61.00;102904.63;106997;1257;59941;-91
2023/02/10 01:25:34;;;;;;;16.70;11.30;;;;;;;-1.55;61.28;102907.66;107363;1256;72522;-89
2023/02/10 01:28:05;;;;;;;18.20;13.30;;;;;;;-1.57;61.26;102907.08;107182;1255;64109;-92
2023/02/10 01:30:36;;;;;;;20.60;11.70;;;;;;;-1.58;60.94;102906.02;107336;1256;73682;-91
2023/02/10 01:33:06;;;;;;;15.60;9.80;;;;;;;-1.61;61.19;102903.89;107412;1255;60364;-89
2023/02/10 01:35:42;;;;;;;17.40;10.70;;;;;;;-1.62;60.96;102905.21;107329;1257;61177;-89
2023/02/10 01:38:12;;;;;;;17.40;10.90;;;;;;;-1.63;60.82;102905.02;107076;1257;74779;-90
2023/02/10 01:40:42;;;;;;;15.40;10.40;;;;;;;-1.68;60.87;102900.27;106881;1260;63595;-89
2023/02/10 01:43:14;;;;;;;18.50;11.20;;;;;;;-1.71;61.02;102900.70;107072;1256;72551;-89
2023/02/10 01:45:45;;;;;;;25.00;14.90;;;;;;;-1.73;61.07;102900.83;107161;1256;60323;-90
2023/02/10 01:48:16;;;;;;;55.80;30.70;;;;;;;-1.74;61.78;102898.23;108232;1256;61731;-92
2023/02/10 01:50:57;;;;;;;53.90;28.50;;;;;;;-1.76;62.34;102900.39;108610;1257;73742;-93
2023/02/10 01:53:27;;;;;;;43.80;25.10;;;;;;;-1.78;62.89;102899.81;109055;1256;63474;-91
2023/02/10 01:56:11;;;;;;;40.70;25.10;;;;;;;-1.82;63.16;102902.63;109079;1257;72573;-90
2023/02/10 01:58:41;;;;;;;35.10;21.10;;;;;;;-1.83;63.43;102900.89;109272;1256;60151;-92
2023/02/10 02:01:12;;;;;;;32.90;17.50;;;;;;;-1.80;63.73;102907.30;108031;1256;61064;-91
2023/02/10 02:03:46;;;;;;;31.50;20.00;;;;;;;-1.79;63.83;102900.48;107189;1261;74025;-90
2023/02/10 02:06:17;;;;;;;32.70;18.40;;;;;;;-1.74;64.12;102899.08;107113;1257;63801;-89
2023/02/10 02:08:48;;;;;;;30.50;18.30;;;;;;;-1.68;64.38;102899.41;107194;1257;72685;-91
2023/02/10 02:11:23;;;;;;;30.20;17.70;;;;;;;-1.59;64.30;102902.21;107167;1257;60661;-90
2023/02/10 02:14:16;;;;;;;30.30;18.60;;;;;;;-1.51;64.18;102899.72;107825;1256;60328;-90
2023/02/10 02:16:58;;;;;;;28.70;17.50;;;;;;;-1.43;63.81;102904.54;107851;1257;73803;-90
2023/02/10 02:19:50;;;;;;;35.60;19.30;;;;;;;-1.37;63.26;102904.02;107084;1260;63498;-91
2023/02/10 02:23:06;;;;;;;32.80;17.50;;;;;;;-1.33;63.28;102902.23;107160;1260;72651;-92
2023/02/10 02:25:57;;;;;;;31.20;17.20;;;;;;;-1.35;63.13;102901.83;107468;1262;60767;-90
2023/02/10 02:28:44;;;;;;;30.70;17.90;;;;;;;-1.38;63.04;102898.16;108015;1263;61339;-91
2023/02/10 02:31:36;;;;;;;34.30;18.80;;;;;;;-1.40;63.25;102902.73;107884;1262;73807;-90
2023/02/10 02:34:36;;;;;;;39.30;19.60;;;;;;;-1.42;63.15;102900.98;107464;1264;63541;-91
2023/02/10 02:37:10;;;;;;;35.20;18.20;;;;;;;-1.47;63.43;102902.91;107910;1263;73078;-88
2023/02/10 02:39:42;;;;;;;38.40;20.20;;;;;;;-1.50;63.46;102902.98;108398;1264;60654;-89
2023/02/10 02:48:44;;;;;;;30.40;18.00;;;;;;;-1.57;63.35;102904.68;103146;1270;979164;-88
2023/02/10 02:51:38;;;;;;;34.60;19.80;;;;;;;-1.62;63.53;102900.77;107142;1270;72668;-89
2023/02/10 02:54:16;;;;;;;41.00;21.80;;;;;;;-1.67;63.83;102894.83;106650;1270;60634;-89
2023/02/10 02:56:48;;;;;;;39.90;24.40;;;;;;;-1.71;63.82;102895.73;105649;1270;61345;-89
2023/02/10 02:59:35;;;;;;;44.10;26.50;;;;;;;-1.75;63.97;102896.13;105666;1273;74838;-87
2023/02/10 03:02:11;;;;;;;40.80;25.00;;;;;;;-1.80;64.02;102894.77;105788;1271;64886;-89
2023/02/10 03:04:41;;;;;;;50.70;25.80;;;;;;;-1.83;64.41;102897.11;108401;1269;73293;-85
2023/02/10 03:07:10;;;;;;;36.90;24.40;;;;;;;-1.84;64.26;102898.97;108399;1270;60221;-90
2023/02/10 03:09:39;;;;;;;44.90;23.40;;;;;;;-1.84;64.25;102897.58;108540;1269;60025;-87
2023/02/10 03:12:12;;;;;;;42.90;22.10;;;;;;;-1.84;64.32;102898.81;108325;1269;74081;-87
2023/02/10 03:14:41;;;;;;;28.60;18.90;;;;;;;-1.82;64.55;102898.35;108452;1269;63554;-89
2023/02/10 03:17:09;;;;;;;31.90;20.80;;;;;;;-1.76;64.80;102895.94;108507;1270;72589;-87
2023/02/10 03:19:38;;;;;;;37.70;21.30;;;;;;;-1.69;64.54;102896.31;108525;1269;59553;-86
2023/02/10 03:22:23;;;;;;;35.90;19.20;;;;;;;-1.60;64.76;102896.54;107962;1270;60045;-86
2023/02/10 03:24:51;;;;;;;30.20;19.60;;;;;;;-1.55;64.34;102892.57;108008;1269;73987;-88
2023/02/10 03:27:20;;;;;;;35.60;18.70;;;;;;;-1.52;64.48;102894.19;107628;1270;63832;-88
2023/02/10 03:29:49;;;;;;;32.10;20.30;;;;;;;-1.51;63.91;102898.67;106724;1273;73721;-90
2023/02/10 03:32:18;;;;;;;29.20;17.90;;;;;;;-1.52;63.67;102893.86;106567;1271;60545;-87
2023/02/10 03:34:48;;;;;;;32.10;19.60;;;;;;;-1.55;63.55;102893.25;106277;1270;60394;-90
2023/02/10 03:37:16;;;;;;;30.00;18.10;;;;;;;-1.59;63.42;102891.42;107250;1270;73733;-88
2023/02/10 03:39:45;;;;;;;31.20;16.90;;;;;;;-1.62;63.62;102896.13;107426;1270;63837;-89
2023/02/10 03:42:13;;;;;;;26.30;17.10;;;;;;;-1.67;63.38;102896.52;106133;1270;73693;-89
2023/02/10 03:44:55;;;;;;;29.90;17.70;;;;;;;-1.72;63.37;102898.81;106020;1271;60497;-89
2023/02/10 03:47:24;;;;;;;30.60;18.10;;;;;;;-1.75;63.39;102892.54;105255;1271;61525;-90
2023/02/10 03:50:05;;;;;;;32.80;19.10;;;;;;;-1.77;63.58;102892.83;105739;1271;74910;-90
2023/02/10 03:52:33;;;;;;;34.40;19.50;;;;;;;-1.77;63.83;102896.59;106527;1271;63534;-90
2023/02/10 03:55:08;;;;;;;26.90;16.10;;;;;;;-1.78;63.95;102898.45;107010;1271;72715;-89
2023/02/10 03:57:37;;;;;;;32.50;18.70;;;;;;;-1.79;64.08;102897.04;107141;1271;60590;-87
2023/02/10 04:00:07;;;;;;;30.30;17.60;;;;;;;-1.82;64.16;102896.45;107494;1271;60473;-89
2023/02/10 04:02:42;;;;;;;30.40;17.30;;;;;;;-1.86;64.24;102898.05;107896;1271;73813;-89
2023/02/10 04:05:11;;;;;;;28.20;16.20;;;;;;;-1.91;64.02;102896.20;107728;1271;64083;-89
2023/02/10 04:07:42;;;;;;;26.20;14.40;;;;;;;-1.96;64.29;102891.92;105414;1273;72864;-90
2023/02/10 04:10:11;;;;;;;24.80;15.80;;;;;;;-2.00;63.96;102896.44;105821;1273;60585;-92
2023/02/10 04:12:40;;;;;;;28.10;15.60;;;;;;;-2.05;63.99;102895.80;105279;1279;60103;-91
2023/02/10 04:15:10;;;;;;;24.90;14.80;;;;;;;-2.10;64.00;102896.70;106394;1276;73996;-89
2023/02/10 04:17:39;;;;;;;25.20;15.90;;;;;;;-2.15;63.95;102891.55;106463;1274;66056;-90
2023/02/10 04:20:14;;;;;;;20.90;14.20;;;;;;;-2.15;64.23;102897.04;104949;1279;74068;-90
2023/02/10 04:22:43;;;;;;;25.00;15.40;;;;;;;-2.16;64.43;102897.01;104956;1273;61741;-88
2023/02/10 04:25:13;;;;;;;23.00;14.90;;;;;;;-2.15;64.37;102897.39;105426;1273;60590;-91
2023/02/10 04:27:44;;;;;;;21.70;13.90;;;;;;;-2.12;64.52;102894.73;108042;1273;75053;-87
2023/02/10 04:30:14;;;;;;;23.30;14.20;;;;;;;-2.10;64.71;102889.14;107608;1273;63762;-89
2023/02/10 04:32:43;;;;;;;23.10;15.00;;;;;;;-2.03;64.70;102896.89;107387;1273;72919;-88
2023/02/10 04:35:12;;;;;;;22.30;13.40;;;;;;;-1.97;64.52;102894.30;105986;1276;60619;-89
2023/02/10 04:37:41;;;;;;;23.30;13.90;;;;;;;-1.91;64.55;102894.33;106680;1273;60277;-89
2023/02/10 04:40:10;;;;;;;23.10;14.10;;;;;;;-1.86;64.42;102892.04;107521;1271;73708;-88
2023/02/10 04:42:39;;;;;;;25.00;14.80;;;;;;;-1.84;64.32;102890.55;107068;1271;64520;-87
2023/02/10 04:45:10;;;;;;;23.80;14.70;;;;;;;-1.85;63.89;102890.89;106304;1270;73897;-88
2023/02/10 04:47:39;;;;;;;22.30;13.80;;;;;;;-1.85;63.91;102891.06;108042;1270;60558;-87
2023/02/10 04:50:09;;;;;;;24.20;14.20;;;;;;;-1.84;63.82;102889.02;107653;1270;60681;-89
2023/02/10 04:52:40;;;;;;;23.60;13.00;;;;;;;-1.89;63.76;102888.73;106424;1278;76409;-88
2023/02/10 04:55:11;;;;;;;21.10;14.00;;;;;;;-1.91;63.68;102891.22;106603;1270;62756;-90
2023/02/10 04:57:41;;;;;;;24.00;14.80;;;;;;;-1.95;63.78;102893.17;107084;1271;72676;-89
2023/02/10 05:00:19;;;;;;;21.60;14.50;;;;;;;-1.99;63.99;102892.02;107137;1271;60554;-89
2023/02/10 05:02:48;;;;;;;28.30;15.60;;;;;;;-2.03;63.91;102895.50;107637;1270;60481;-88
2023/02/10 05:05:33;;;;;;;24.50;14.60;;;;;;;-2.05;63.83;102894.24;107488;1272;74197;-89
2023/02/10 05:08:01;;;;;;;22.30;14.00;;;;;;;-2.06;64.11;102895.41;106068;1271;62900;-90
2023/02/10 05:10:33;;;;;;;27.00;15.80;;;;;;;-2.08;64.09;102895.20;105650;1271;72794;-89
2023/02/10 05:13:02;;;;;;;25.80;14.90;;;;;;;-2.09;64.26;102897.06;106017;1274;60602;-90
2023/02/10 05:15:33;;;;;;;20.70;13.90;;;;;;;-2.12;64.61;102899.38;106015;1272;60612;-91
2023/02/10 05:18:02;;;;;;;23.30;14.90;;;;;;;-2.16;64.37;102904.23;106218;1270;74078;-90
2023/02/10 05:20:30;;;;;;;25.70;15.40;;;;;;;-2.17;64.43;102904.37;105869;1270;63892;-90
2023/02/10 05:22:59;;;;;;;26.40;14.80;;;;;;;-2.15;64.42;102905.27;105916;1270;73752;-90
2023/02/10 05:25:31;;;;;;;27.70;15.30;;;;;;;-2.15;64.05;102902.20;106042;1270;61464;-88
2023/02/10 05:28:02;;;;;;;26.10;16.00;;;;;;;-2.14;64.57;102907.52;106175;1272;60621;-91
2023/02/10 05:30:31;;;;;;;24.40;13.90;;;;;;;-2.13;64.35;102911.88;105427;1270;75104;-90
2023/02/10 05:33:00;;;;;;;27.60;15.30;;;;;;;-2.11;64.52;102910.73;105548;1270;63793;-90
2023/02/10 05:35:29;;;;;;;24.10;14.70;;;;;;;-2.10;64.29;102912.81;105539;1271;72541;-88
2023/02/10 05:38:01;;;;;;;23.90;14.90;;;;;;;-2.09;64.03;102911.62;106536;1270;61080;-91
2023/02/10 05:40:30;;;;;;;25.80;14.30;;;;;;;-2.11;64.19;102911.59;105200;1270;61354;-90
2023/02/10 05:43:00;;;;;;;27.50;15.10;;;;;;;-2.12;64.10;102907.94;105785;1270;72813;-89
2023/02/10 05:45:28;;;;;;;21.20;12.40;;;;;;;-2.14;64.05;102907.54;105885;1270;63137;-90
2023/02/10 05:47:58;;;;;;;27.50;13.90;;;;;;;-2.15;63.91;102914.38;106051;1272;72456;-92
2023/02/10 05:50:27;;;;;;;24.30;14.70;;;;;;;-2.13;64.34;102912.72;105678;1270;62003;-89
2023/02/10 05:52:56;;;;;;;23.20;13.90;;;;;;;-2.10;64.19;102906.13;105666;1276;60276;-89
2023/02/10 05:55:26;;;;;;;24.20;14.00;;;;;;;-2.06;64.55;102901.09;106792;1270;73762;-89
2023/02/10 05:57:55;;;;;;;21.90;13.90;;;;;;;-1.96;64.43;102908.41;105688;1271;63675;-91
2023/02/10 06:00:23;;;;;;;27.10;15.20;;;;;;;-1.85;64.26;102917.28;105926;1271;72394;-90
2023/02/10 06:02:54;;;;;;;35.50;18.40;;;;;;;-1.76;63.93;102922.02;106649;1270;60574;-89
2023/02/10 06:05:25;;;;;;;31.00;16.70;;;;;;;-1.67;63.87;102918.83;107762;1270;59226;-91
2023/02/10 06:08:15;;;;;;;23.50;12.90;;;;;;;-1.57;63.61;102917.73;105618;1289;600145;-91
2023/02/10 06:11:00;;;;;;;22.20;12.80;;;;;;;-1.55;63.29;102920.34;108105;1260;59197;-90
2023/02/10 06:13:29;;;;;;;22.60;13.50;;;;;;;-1.57;63.18;102918.57;108155;1260;60297;-91
2023/02/10 06:16:04;;;;;;;21.20;13.80;;;;;;;-1.55;62.88;102921.22;108506;1254;72064;-91
2023/02/10 06:18:33;;;;;;;17.90;11.20;;;;;;;-1.55;62.85;102917.58;108260;1254;63551;-90
2023/02/10 06:21:02;;;;;;;22.50;13.70;;;;;;;-1.61;62.75;102913.67;107571;1250;940934;-90
2023/02/10 06:24:02;;;;;;;21.70;12.90;;;;;;;-1.64;62.94;102911.19;109390;1250;59235;-90
2023/02/10 06:26:34;;;;;;;28.80;16.90;;;;;;;-1.61;62.92;102909.37;109840;1251;60256;-91
2023/02/10 06:29:41;;;;;;;24.70;15.40;;;;;;;-1.61;62.87;102905.42;109681;1250;74020;-91
2023/02/10 06:33:24;;;;;;;24.50;14.50;;;;;;;-1.62;62.96;102904.70;109662;1250;64501;-92
2023/02/10 06:36:55;;;;;;;30.60;17.50;;;;;;;-1.58;62.91;102903.27;109745;1251;71359;-91
2023/02/10 06:43:01;;;;;;;26.10;15.20;;;;;;;-1.45;63.02;102906.74;107060;1256;58999;-90
2023/02/10 06:45:55;;;;;;;22.10;14.40;;;;;;;-1.38;62.71;102907.92;109055;1262;72924;-90
2023/02/10 06:49:16;;;;;;;22.20;14.00;;;;;;;-1.32;62.82;102908.60;109083;1257;66043;-90
2023/02/10 06:53:10;;;;;;;21.60;12.10;;;;;;;-1.21;62.70;102908.38;109109;1259;72633;-90
2023/02/10 06:56:05;;;;;;;27.80;14.80;;;;;;;-1.14;62.67;102898.43;109351;1257;59475;-92
2023/02/10 06:59:03;;;;;;;30.20;14.60;;;;;;;-1.05;62.72;102897.79;109056;1259;60177;-90
2023/02/10 07:02:00;;;;;;;25.30;14.90;;;;;;;-0.98;62.62;102901.23;109054;1256;73000;-91
2023/02/10 07:08:16;;;;;;;21.50;13.70;;;;;;;-0.87;62.02;102890.36;108985;1259;74704;-90
2023/02/10 07:11:06;;;;;;;23.40;14.30;;;;;;;-0.83;62.00;102885.79;108968;1259;60284;-91
2023/02/10 07:13:39;;;;;;;27.40;16.50;;;;;;;-0.80;61.73;102884.15;108830;1259;59645;-91
2023/02/10 07:16:33;;;;;;;22.80;15.40;;;;;;;-0.75;61.81;102880.48;108352;1259;72485;-91
2023/02/10 07:19:05;;;;;;;24.20;14.60;;;;;;;-0.73;61.52;102879.17;108335;1259;63746;-91
2023/02/10 07:21:39;;;;;;;19.40;15.20;;;;;;;-0.65;61.58;102878.66;108589;1259;73306;-92
2023/02/10 07:24:40;;;;;;;21.60;13.80;;;;;;;-0.55;61.72;102875.27;108609;1259;59503;-91
2023/02/10 07:27:43;;;;;;;19.90;13.30;;;;;;;-0.43;61.32;102871.77;108466;1259;59186;-93
2023/02/10 07:30:45;;;;;;;19.00;12.80;;;;;;;-0.31;60.91;102874.42;108656;1259;73531;-93
2023/02/10 07:34:09;;;;;;;20.00;12.40;;;;;;;-0.27;60.55;102868.67;108655;1259;62931;-91
2023/02/10 07:37:12;;;;;;;27.00;13.00;;;;;;;-0.23;60.78;102869.96;108420;1259;74968;-91
2023/02/10 07:40:28;;;;;;;21.20;13.40;;;;;;;-0.10;60.90;102863.52;108583;1262;59365;-91
2023/02/10 07:43:06;;;;;;;21.80;14.10;;;;;;;0.03;60.57;102870.15;108105;1262;59970;-90
2023/02/10 08:01:37;;;;;;;18.20;12.50;;;;;;;0.71;58.23;102865.73;107628;1278;59121;-92
2023/02/10 08:04:33;;;;;;;19.20;12.80;;;;;;;0.90;57.75;102868.28;107013;1282;71841;-91
2023/02/10 08:07:59;;;;;;;23.70;14.40;;;;;;;1.06;57.20;102870.27;106641;1285;63073;-92
2023/02/10 08:10:56;;;;;;;19.90;14.10;;;;;;;1.18;56.79;102869.42;106808;1285;71794;-91
2023/02/10 08:13:27;;;;;;;22.00;13.90;;;;;;;1.24;56.53;102866.06;106570;1287;59348;-92
2023/02/10 08:16:02;;;;;;;21.40;14.40;;;;;;;1.32;56.21;102864.81;106935;1285;60069;-91
2023/02/10 08:19:11;;;;;;;23.90;15.00;;;;;;;1.39;56.25;102857.50;106968;1285;73185;-92
2023/02/10 08:21:53;;;;;;;21.70;13.30;;;;;;;1.49;56.02;102854.52;106669;1285;62997;-92
2023/02/10 08:24:29;;;;;;;22.30;12.90;;;;;;;1.53;55.26;102861.30;106787;1285;72821;-91
2023/02/10 08:27:09;;;;;;;23.20;14.40;;;;;;;1.54;55.22;102854.44;106171;1285;59605;-91
2023/02/10 08:29:42;;;;;;;22.30;15.30;;;;;;;1.53;55.01;102860.27;106546;1285;60461;-92
2023/02/10 08:32:12;;;;;;;22.30;15.00;;;;;;;1.44;55.02;102857.92;106748;1281;73116;-92
2023/02/10 08:34:43;;;;;;;24.00;14.60;;;;;;;1.37;55.42;102860.05;105878;1287;63258;-90
2023/02/10 08:37:22;;;;;;;24.50;16.20;;;;;;;1.29;55.73;102860.98;105712;1282;71564;-92
2023/02/10 08:39:58;;;;;;;18.80;12.30;;;;;;;1.26;55.90;102858.68;106333;1273;59821;-92
2023/02/10 08:43:20;;;;;;;20.10;13.30;;;;;;;1.18;55.48;102854.95;107215;1274;59648;-91
2023/02/10 08:46:16;;;;;;;19.90;14.00;;;;;;;1.11;55.83;102850.54;107036;1272;74082;-92
2023/02/10 08:49:28;;;;;;;17.80;12.40;;;;;;;1.04;55.34;102843.88;106974;1276;67123;-93
2023/02/10 08:52:26;;;;;;;19.60;13.50;;;;;;;0.99;55.49;102836.40;106854;1276;73227;-92
2023/02/10 08:54:59;;;;;;;22.20;15.30;;;;;;;0.94;55.73;102836.48;106961;1276;60403;-91
2023/02/10 08:57:30;;;;;;;22.80;14.00;;;;;;;0.85;55.66;102834.45;105710;1277;60355;-92
2023/02/10 09:00:05;;;;;;;22.30;14.30;;;;;;;0.77;55.88;102830.52;105823;1276;72169;-90
2023/02/10 09:02:56;;;;;;;;;;;;;;;0.67;56.00;102827.96;106850;1276;64398;-93
2023/02/10 09:05:36;;;;;;;20.10;12.10;;;;;;;0.63;56.37;102824.98;106986;1276;72404;-92
2023/02/10 09:08:10;;;;;;;22.20;12.80;;;;;;;0.60;56.29;102824.23;106018;1276;59903;-91
2023/02/10 09:10:45;;;;;;;16.10;10.90;;;;;;;0.64;56.37;102822.40;105645;1279;61067;-91
2023/02/10 09:13:16;;;;;;;18.60;12.50;;;;;;;0.82;56.35;102816.15;105516;1281;73966;-91
2023/02/10 09:15:45;;;;;;;21.30;14.10;;;;;;;1.19;56.33;102817.41;106086;1283;63634;-93
2023/02/10 09:18:38;;;;;;;18.90;12.20;;;;;;;1.95;55.40;102815.97;107325;1282;72916;-91
2023/02/10 09:21:08;;;;;;;16.50;10.00;;;;;;;2.65;53.35;102812.83;107530;1276;59542;-90
2023/02/10 09:23:37;;;;;;;20.70;12.30;;;;;;;3.28;52.03;102809.32;106126;1276;60054;-92
2023/02/10 09:26:06;;;;;;;17.80;12.20;;;;;;;3.94;50.05;102809.25;105970;1277;74144;-91
2023/02/10 09:28:37;;;;;;;18.60;10.60;;;;;;;4.52;48.17;102804.84;105517;1280;65124;-92
2023/02/10 09:33:13;;;;;;;17.20;11.60;;;;;;;5.43;45.99;102806.81;104062;1294;600292;-91
2023/02/10 09:35:48;;;;;;;17.20;12.10;;;;;;;5.85;44.79;102810.98;106736;1269;60030;-92
2023/02/10 09:38:21;;;;;;;16.90;13.30;;;;;;;6.27;44.10;102811.98;106173;1270;60502;-92
2023/02/10 09:41:12;;;;;;;19.90;12.70;;;;;;;6.68;42.89;102804.55;106002;1267;73138;-90
2023/02/10 09:43:49;;;;;;;16.90;12.50;;;;;;;7.04;41.68;102802.14;106358;1261;64722;-91
2023/02/10 09:46:34;;;;;;;12.60;10.80;;;;;;;7.20;41.15;102798.66;105861;1258;843482;-91
2023/02/10 09:49:12;;;;;;;13.40;10.90;;;;;;;7.37;40.86;102801.09;106524;1261;60567;-91
2023/02/10 09:51:48;;;;;;;14.80;10.90;;;;;;;7.57;40.05;102802.23;106903;1263;61885;-92
2023/02/10 09:54:17;;;;;;;14.40;11.00;;;;;;;7.87;40.13;102797.85;106944;1258;72723;-92
2023/02/10 09:56:46;;;;;;;14.10;11.20;;;;;;;8.35;39.85;102790.89;107015;1258;64765;-91
2023/02/10 09:59:47;;;;;;;17.80;11.90;;;;;;;8.90;38.60;102779.17;107256;1258;74290;-94
2023/02/10 10:02:43;;;;;;;16.40;11.90;;;;;;;9.29;37.91;102787.34;107659;1259;59677;-92
2023/02/10 10:05:37;;;;;;;13.90;11.30;;;;;;;9.52;37.33;102784.96;107787;1258;60294;-93
2023/02/10 10:08:39;;;;;;;15.60;10.10;;;;;;;9.75;36.81;102782.72;108254;1258;72044;-92
2023/02/10 14:04:16;;;;;;;25.10;15.90;;;;;;;0.74;54.62;102615.30;104276;1279;613707;-83
2023/02/10 14:06:49;;;;;;;20.10;13.80;;;;;;;0.74;54.81;102615.48;105610;1263;108822;-86
2023/02/10 14:09:29;;;;;;;23.00;13.40;;;;;;;0.69;54.99;102610.06;105427;1265;61302;-86
2023/02/10 14:12:03;;;;;;;23.40;12.60;;;;;;;0.61;55.13;102606.88;105414;1263;73769;-87
2023/02/10 14:14:35;;;;;;;20.20;13.80;;;;;;;0.52;55.20;102605.36;105998;1256;64827;-87
2023/02/10 14:17:29;;;;;;;22.20;13.20;;;;;;;0.45;55.55;102607.69;107315;1256;72696;-86
2023/02/10 14:20:01;;;;;;;20.50;12.80;;;;;;;0.36;55.85;102607.22;106464;1267;61458;-87
2023/02/10 14:22:31;;;;;;;28.20;15.20;;;;;;;0.28;56.23;102605.04;105931;1256;61345;-87
2023/02/10 14:25:03;;;;;;;24.20;16.60;;;;;;;0.22;56.12;102611.13;105953;1256;72281;-87
2023/02/10 14:27:32;;;;;;;37.30;19.80;;;;;;;0.15;56.39;102610.16;106592;1256;63820;-86
2023/02/10 14:30:19;;;;;;;36.20;21.20;;;;;;;0.09;56.79;102604.39;105956;1258;73617;-88
2023/02/10 14:32:48;;;;;;;27.90;18.00;;;;;;;0.02;57.00;102597.07;106361;1255;60416;-86
2023/02/10 14:35:24;;;;;;;26.90;17.60;;;;;;;-0.04;57.33;102597.66;106164;1256;60052;-87
2023/02/10 14:37:58;;;;;;;30.10;18.80;;;;;;;-0.10;57.54;102596.71;105960;1256;74061;-86
2023/02/10 14:40:29;;;;;;;27.40;16.40;;;;;;;-0.16;57.73;102591.10;106096;1264;64658;-87
2023/02/10 14:42:59;;;;;;;29.90;18.70;;;;;;;-0.24;58.00;102586.00;106014;1256;73285;-89
2023/02/10 14:45:28;;;;;;;31.20;19.20;;;;;;;-0.32;58.35;102586.39;105848;1267;60502;-88
2023/02/10 14:48:05;;;;;;;28.90;17.20;;;;;;;-0.41;58.38;102585.02;106001;1256;61154;-87
2023/02/10 14:50:38;;;;;;;29.50;16.00;;;;;;;-0.48;58.96;102582.14;106032;1252;74260;-85
2023/02/10 14:53:16;;;;;;;34.00;19.70;;;;;;;-0.56;58.98;102580.64;105885;1251;64224;-86
2023/02/10 14:55:45;;;;;;;36.60;20.40;;;;;;;-0.62;59.29;102582.94;105782;1251;72300;-86
2023/02/10 14:58:17;;;;;;;35.90;20.90;;;;;;;-0.67;59.49;102577.52;105954;1256;60958;-87
2023/02/10 15:01:02;;;;;;;40.90;22.20;;;;;;;-0.73;59.73;102576.73;105992;1256;60300;-87
2023/02/10 15:03:31;;;;;;;36.90;23.10;;;;;;;-0.77;60.23;102572.85;105924;1251;73959;-87
2023/02/10 15:06:00;;;;;;;30.30;19.80;;;;;;;-0.84;60.44;102573.10;105895;1252;64821;-85
2023/02/10 15:08:56;;;;;;;28.90;16.60;;;;;;;-0.91;60.48;102575.71;106180;1256;74074;-86
2023/02/10 15:14:26;;;;;;;33.00;19.00;;;;;;;-1.02;60.96;102576.19;108813;1251;60004;-86
2023/02/10 15:16:57;;;;;;;32.30;18.60;;;;;;;-1.06;61.06;102573.37;109520;1251;73115;-86
2023/02/10 15:19:27;;;;;;;33.40;18.60;;;;;;;-1.08;61.19;102571.75;109626;1251;62835;-86
2023/02/10 15:21:55;;;;;;;36.40;20.20;;;;;;;-1.12;61.30;102569.30;108519;1251;72675;-87
2023/02/10 15:24:34;;;;;;;37.10;21.00;;;;;;;-1.15;61.73;102573.35;106207;1266;61338;-86
2023/02/10 15:27:17;;;;;;;29.40;19.50;;;;;;;-1.18;61.79;102577.73;105961;1256;61292;-86
2023/02/10 15:29:48;;;;;;;39.80;20.10;;;;;;;-1.22;61.73;102581.60;105935;1253;73861;-87
2023/02/10 15:32:17;;;;;;;34.00;18.70;;;;;;;-1.26;61.88;102580.67;106270;1256;65323;-86
2023/02/10 15:34:53;;;;;;;30.30;19.40;;;;;;;-1.29;62.12;102582.15;106024;1257;72416;-88
2023/02/10 15:37:24;;;;;;;35.60;21.30;;;;;;;-1.30;62.18;102585.57;105915;1256;60857;-87
2023/02/10 15:39:57;;;;;;;36.10;18.80;;;;;;;-1.32;61.83;102587.58;105914;1251;61485;-86
2023/02/10 15:42:30;;;;;;;36.10;19.60;;;;;;;-1.35;62.26;102588.55;105979;1255;73142;-87
2023/02/10 15:45:21;;;;;;;39.40;23.20;;;;;;;-1.38;62.32;102595.36;106209;1255;64814;-86
2023/02/10 15:48:21;;;;;;;45.20;23.10;;;;;;;-1.42;62.37;102593.72;106262;1256;72672;-86
2023/02/10 15:51:05;;;;;;;44.30;24.00;;;;;;;-1.46;62.40;102597.08;105856;1251;60354;-87
2023/02/10 15:53:35;;;;;;;45.30;26.30;;;;;;;-1.48;62.74;102597.55;105925;1256;59987;-84
2023/02/10 15:56:04;;;;;;;32.40;20.70;;;;;;;-1.53;62.74;102594.17;105857;1259;74212;-85
2023/02/10 15:58:33;;;;;;;40.60;22.10;;;;;;;-1.58;62.99;102594.59;105897;1256;65175;-87
2023/02/10 16:01:01;;;;;;;51.40;25.00;;;;;;;-1.64;63.01;102591.19;105872;1257;73776;-87
2023/02/10 16:03:29;;;;;;;63.30;28.50;;;;;;;-1.69;63.29;102591.09;106012;1256;62974;-86
2023/02/10 16:06:01;;;;;;;52.00;22.50;;;;;;;-1.70;63.25;102594.83;105955;1251;61332;-86
2023/02/10 16:08:30;;;;;;;40.80;22.40;;;;;;;-1.72;63.78;102598.21;105986;1254;74039;-87
2023/02/10 16:11:21;;;;;;;40.50;20.00;;;;;;;-1.71;64.22;102594.45;105897;1251;64661;-86
2023/02/10 16:14:10;;;;;;;35.40;19.50;;;;;;;-1.69;64.27;102590.38;106086;1265;75098;-86
2023/02/10 16:16:44;;;;;;;45.40;22.90;;;;;;;-1.69;64.78;102584.40;106138;1251;60652;-88
2023/02/10 16:19:15;;;;;;;44.80;23.40;;;;;;;-1.67;65.01;102586.66;105929;1251;61198;-86